Time;durP1;ratioP1;P1;durP2;ratioP2;P2;SDS_P1;SDS_P2;PMS_P1;PMS_P2;Temp;Humidity;BMP_temperature;BMP_pressure;BME280_temperature;BME280_humidity;BME280_pressure;Samples;Min_cycle;Max_cycle;Signal;HPM_P1;HPM_P2
2021/03/04 00:00:52;;;;;;;41.90;27.40;;;9.30;99.90;;;;;;5024547;28;20210;-74
2021/03/04 00:03:18;;;;;;;43.20;27.10;;;9.30;99.90;;;;;;5052441;28;20171;-72
2021/03/04 00:05:44;;;;;;;40.80;27.73;;;9.30;99.90;;;;;;5043448;28;20178;-71
2021/03/04 00:08:09;;;;;;;37.40;27.07;;;9.40;99.90;;;;;;5046340;28;20182;-71
2021/03/04 00:10:35;;;;;;;43.83;28.30;;;9.40;99.90;;;;;;5053471;28;20191;-72
2021/03/04 00:13:00;;;;;;;37.93;27.37;;;9.30;99.90;;;;;;5052237;28;20171;-72
2021/03/04 00:15:28;;;;;;;40.13;27.20;;;9.30;99.90;;;;;;5044406;28;20509;-72
2021/03/04 00:17:54;;;;;;;38.17;27.50;;;9.20;99.90;;;;;;5037667;28;20193;-71
2021/03/04 00:20:22;;;;;;;45.50;27.90;;;9.20;99.90;;;;;;5018706;28;20445;-73
2021/03/04 00:22:48;;;;;;;35.77;26.20;;;9.00;99.90;;;;;;5037325;28;20218;-71
2021/03/04 00:25:14;;;;;;;41.70;28.27;;;8.90;99.90;;;;;;5038144;28;20413;-71
2021/03/04 00:27:41;;;;;;;42.53;28.00;;;8.90;99.90;;;;;;5037215;28;20183;-71
2021/03/04 00:30:09;;;;;;;41.83;28.20;;;8.80;99.90;;;;;;5035850;28;20522;-70
2021/03/04 00:32:35;;;;;;;45.70;29.20;;;8.90;99.90;;;;;;5036273;28;20466;-70
2021/03/04 00:35:00;;;;;;;55.20;36.47;;;9.00;99.90;;;;;;5036442;28;20411;-71
2021/03/04 00:37:26;;;;;;;57.27;39.03;;;9.00;99.90;;;;;;5036325;28;20899;-71
2021/03/04 00:39:52;;;;;;;50.67;34.33;;;9.10;99.90;;;;;;5035919;28;20195;-71
2021/03/04 00:42:18;;;;;;;52.47;33.80;;;9.10;99.90;;;;;;5036137;28;20202;-71
2021/03/04 00:44:44;;;;;;;50.70;32.20;;;9.20;99.90;;;;;;5036225;28;20181;-71
2021/03/04 00:47:09;;;;;;;48.40;31.07;;;9.20;99.90;;;;;;5036179;28;20413;-71
2021/03/04 00:49:35;;;;;;;49.83;34.80;;;9.20;99.90;;;;;;5035779;28;20202;-71
2021/03/04 00:52:00;;;;;;;52.03;32.33;;;9.20;99.90;;;;;;5035806;28;20569;-73
2021/03/04 00:54:26;;;;;;;46.93;32.57;;;9.30;99.90;;;;;;5036108;28;20618;-71
2021/03/04 00:56:52;;;;;;;53.50;32.13;;;9.30;99.90;;;;;;5018210;28;20197;-71
2021/03/04 00:59:18;;;;;;;52.40;33.83;;;9.30;99.90;;;;;;5035667;28;20424;-72
2021/03/04 01:01:44;;;;;;;49.70;32.97;;;9.30;99.90;;;;;;5034965;28;20297;-72
2021/03/04 01:04:09;;;;;;;52.87;34.73;;;9.30;99.90;;;;;;5035278;28;21041;-70
2021/03/04 01:06:35;;;;;;;50.20;35.07;;;9.30;99.90;;;;;;5035798;28;20408;-71
2021/03/04 01:09:00;;;;;;;48.80;34.77;;;9.20;99.90;;;;;;5035293;28;20204;-72
2021/03/04 01:11:26;;;;;;;53.20;34.93;;;9.20;99.90;;;;;;5035652;28;20669;-71
2021/03/04 01:13:52;;;;;;;47.83;34.10;;;9.10;99.90;;;;;;5036034;28;20182;-71
2021/03/04 01:16:17;;;;;;;47.20;29.33;;;9.10;99.90;;;;;;5035804;28;20178;-71
2021/03/04 01:18:43;;;;;;;45.97;30.87;;;9.10;99.90;;;;;;5035308;28;20255;-71
2021/03/04 01:21:08;;;;;;;45.17;31.07;;;9.00;99.90;;;;;;5035487;28;20205;-71
2021/03/04 01:23:34;;;;;;;44.27;31.77;;;9.00;99.90;;;;;;5035212;28;20285;-71
2021/03/04 01:26:00;;;;;;;47.23;32.90;;;9.10;99.90;;;;;;5035959;28;20186;-71
2021/03/04 01:28:25;;;;;;;49.70;33.13;;;9.10;99.90;;;;;;5035308;28;20182;-71
2021/03/04 01:30:51;;;;;;;43.60;31.47;;;9.10;99.90;;;;;;5035325;28;20213;-71
2021/03/04 01:33:18;;;;;;;48.20;32.20;;;9.10;99.90;;;;;;5035387;28;20494;-71
2021/03/04 01:35:45;;;;;;;46.70;31.10;;;9.00;99.90;;;;;;5035308;28;20817;-71
2021/03/04 01:38:11;;;;;;;47.17;32.87;;;9.00;99.90;;;;;;5035242;28;20442;-71
2021/03/04 01:40:36;;;;;;;47.53;32.83;;;9.10;99.90;;;;;;5035870;28;20786;-71
2021/03/04 01:43:02;;;;;;;48.03;32.10;;;9.10;99.90;;;;;;5017907;28;20178;-71
2021/03/04 01:45:28;;;;;;;45.60;33.17;;;9.20;99.90;;;;;;5034832;28;20187;-72
2021/03/04 01:47:55;;;;;;;41.67;29.40;;;9.20;99.90;;;;;;5035382;28;20436;-70
2021/03/04 01:50:26;;;;;;;46.77;28.77;;;9.30;99.90;;;;;;5038527;28;20629;-71
2021/03/04 01:52:52;;;;;;;40.00;28.23;;;9.30;99.90;;;;;;5038551;28;20409;-72
2021/03/04 01:55:19;;;;;;;47.10;31.13;;;9.40;99.90;;;;;;5038517;28;20434;-71
2021/03/04 01:57:46;;;;;;;39.77;28.20;;;9.40;99.90;;;;;;5035369;28;20409;-72
2021/03/04 02:00:14;;;;;;;41.30;31.10;;;9.40;99.90;;;;;;5034931;28;20528;-72
2021/03/04 02:02:39;;;;;;;50.00;31.70;;;9.40;99.90;;;;;;5034841;28;20969;-72
2021/03/04 02:05:17;;;;;;;46.30;30.90;;;9.40;99.90;;;;;;5034365;28;20547;-71
2021/03/04 02:08:09;;;;;;;47.10;32.10;;;9.30;99.90;;;;;;5034556;28;20205;-71
2021/03/04 02:10:54;;;;;;;45.43;32.87;;;9.30;99.90;;;;;;5033597;28;20410;-72
2021/03/04 02:13:24;;;;;;;47.97;32.90;;;9.40;99.90;;;;;;5034408;28;20421;-71
2021/03/04 02:15:59;;;;;;;43.40;30.53;;;9.40;99.90;;;;;;5034370;28;20795;-72
2021/03/04 02:18:28;;;;;;;45.97;31.50;;;9.30;99.90;;;;;;5016903;28;21061;-71
2021/03/04 02:21:31;;;;;;;43.47;28.77;;;9.40;99.90;;;;;;5034366;28;20457;-71
2021/03/04 02:24:34;;;;;;;47.60;28.97;;;9.40;99.90;;;;;;5034286;28;20439;-71
2021/03/04 02:27:09;;;;;;;39.93;28.00;;;9.30;99.90;;;;;;5033920;28;20425;-71
2021/03/04 02:29:48;;;;;;;41.07;29.23;;;9.20;99.90;;;;;;5034222;28;20428;-72
2021/03/04 02:32:17;;;;;;;40.70;28.63;;;9.20;99.90;;;;;;5016761;28;20514;-70
2021/03/04 02:34:47;;;;;;;43.33;27.57;;;9.20;99.90;;;;;;5034400;28;20830;-72
2021/03/04 02:37:16;;;;;;;41.63;28.73;;;9.20;99.90;;;;;;5033823;28;20417;-72
2021/03/04 02:39:45;;;;;;;39.30;27.07;;;9.30;99.90;;;;;;5034170;28;20444;-71
2021/03/04 02:42:19;;;;;;;43.47;28.80;;;9.30;99.90;;;;;;5033728;28;20491;-72
2021/03/04 02:44:47;;;;;;;43.70;28.10;;;9.30;99.90;;;;;;5033616;28;20442;-72
2021/03/04 02:47:16;;;;;;;50.47;31.27;;;9.40;99.90;;;;;;5033974;28;20420;-72
2021/03/04 02:49:42;;;;;;;45.27;29.43;;;9.40;99.90;;;;;;5034009;28;20441;-71
2021/03/04 02:52:08;;;;;;;42.73;28.40;;;9.40;99.90;;;;;;5033830;28;20417;-72
2021/03/04 02:54:34;;;;;;;47.93;31.37;;;9.40;99.90;;;;;;5015746;28;20532;-71
2021/03/04 02:57:02;;;;;;;43.03;29.40;;;9.40;99.90;;;;;;5034109;28;20498;-71
2021/03/04 02:59:28;;;;;;;42.90;29.00;;;9.40;99.90;;;;;;5033547;28;20879;-71
2021/03/04 03:01:55;;;;;;;41.77;30.30;;;9.40;99.90;;;;;;5016071;28;20460;-71
2021/03/04 03:04:21;;;;;;;40.27;29.57;;;9.40;99.90;;;;;;5033784;28;20443;-71
2021/03/04 03:06:48;;;;;;;44.20;28.03;;;9.40;99.90;;;;;;5033452;28;20414;-72
2021/03/04 03:09:13;;;;;;;41.70;27.77;;;9.40;99.90;;;;;;5033177;28;20417;-72
2021/03/04 03:11:39;;;;;;;44.60;29.27;;;9.40;99.90;;;;;;5033959;28;20404;-72
2021/03/04 03:14:07;;;;;;;39.80;30.10;;;9.40;99.90;;;;;;5033586;28;20171;-72
2021/03/04 03:16:33;;;;;;;45.87;30.40;;;9.40;99.90;;;;;;5033419;28;20261;-72
2021/03/04 03:18:58;;;;;;;44.90;32.17;;;9.40;99.90;;;;;;5033410;28;20508;-73
2021/03/04 03:21:24;;;;;;;51.40;33.43;;;9.40;99.90;;;;;;5034013;28;20233;-71
2021/03/04 03:23:50;;;;;;;53.40;33.60;;;9.40;99.90;;;;;;5037338;28;20250;-72
2021/03/04 03:26:15;;;;;;;48.97;32.70;;;9.30;99.90;;;;;;5044731;28;20224;-71
2021/03/04 03:28:41;;;;;;;47.57;35.90;;;9.30;99.90;;;;;;5030485;28;20269;-72
2021/03/04 03:31:08;;;;;;;44.30;30.53;;;9.20;99.90;;;;;;5044914;28;20218;-73
2021/03/04 03:33:34;;;;;;;44.30;30.37;;;9.10;99.90;;;;;;5021131;28;20200;-72
2021/03/04 03:36:01;;;;;;;46.43;30.60;;;9.10;99.90;;;;;;5032194;28;20547;-72
2021/03/04 03:38:27;;;;;;;45.80;31.27;;;9.10;99.90;;;;;;5035603;28;20436;-72
2021/03/04 03:40:55;;;;;;;47.50;32.10;;;9.10;99.90;;;;;;5047002;28;20433;-72
2021/03/04 03:43:23;;;;;;;45.10;31.53;;;9.10;99.90;;;;;;5039406;28;20435;-72
2021/03/04 03:45:50;;;;;;;48.30;31.40;;;9.10;99.90;;;;;;5038585;28;20417;-72
2021/03/04 03:48:20;;;;;;;42.43;31.03;;;9.10;99.90;;;;;;5037423;28;20759;-72
2021/03/04 03:50:51;;;;;;;45.57;31.60;;;9.10;99.90;;;;;;5037486;28;20418;-71
2021/03/04 03:53:18;;;;;;;48.47;32.47;;;9.20;99.90;;;;;;5036710;28;20436;-72
2021/03/04 03:55:48;;;;;;;47.50;33.57;;;9.20;99.90;;;;;;5037573;28;20867;-72
2021/03/04 03:58:17;;;;;;;47.97;32.83;;;9.20;99.90;;;;;;5018888;28;20866;-72
2021/03/04 04:00:45;;;;;;;52.67;34.07;;;9.20;99.90;;;;;;5019184;28;20438;-72
2021/03/04 04:03:11;;;;;;;56.07;34.07;;;9.10;99.90;;;;;;5037051;28;20777;-72
2021/03/04 04:05:37;;;;;;;51.85;40.08;;;9.00;99.90;;;;;;5036245;28;20417;-72
2021/03/04 04:08:03;;;;;;;55.70;35.00;;;9.00;99.90;;;;;;5036269;28;20202;-72
2021/03/04 04:10:32;;;;;;;48.33;32.97;;;8.90;99.90;;;;;;5019399;28;20949;-72
2021/03/04 04:12:58;;;;;;;45.13;31.13;;;8.80;99.90;;;;;;5036739;28;20456;-72
2021/03/04 04:15:26;;;;;;;51.77;32.77;;;8.70;99.90;;;;;;5036818;28;20420;-72
2021/03/04 04:17:54;;;;;;;51.07;31.97;;;8.70;99.90;;;;;;5036512;28;20515;-72
2021/03/04 04:20:20;;;;;;;52.83;31.80;;;8.70;99.90;;;;;;5036703;28;20425;-72
2021/03/04 04:22:47;;;;;;;45.30;30.37;;;8.70;99.90;;;;;;5036516;28;20461;-72
2021/03/04 04:25:13;;;;;;;48.57;31.40;;;8.80;99.90;;;;;;5036191;28;20516;-72
2021/03/04 04:27:39;;;;;;;40.23;29.70;;;8.80;99.90;;;;;;5036357;28;20441;-72
2021/03/04 04:30:06;;;;;;;47.67;32.70;;;8.80;99.90;;;;;;5036164;28;20479;-72
2021/03/04 04:32:31;;;;;;;43.13;32.20;;;8.70;99.90;;;;;;5036191;28;20293;-72
2021/03/04 04:34:57;;;;;;;49.40;34.00;;;8.70;99.90;;;;;;5035837;28;20426;-72
2021/03/04 04:37:23;;;;;;;52.20;33.70;;;8.70;99.90;;;;;;5036115;28;20173;-72
2021/03/04 04:39:48;;;;;;;50.90;33.27;;;8.70;99.90;;;;;;5035943;28;20208;-72
2021/03/04 04:42:14;;;;;;;51.37;34.17;;;8.70;99.90;;;;;;5035507;28;20222;-72
2021/03/04 04:44:39;;;;;;;49.53;32.80;;;8.70;99.90;;;;;;5036064;28;20185;-72
2021/03/04 04:47:05;;;;;;;46.20;32.50;;;8.70;99.90;;;;;;5034893;28;20183;-72
2021/03/04 04:49:30;;;;;;;48.90;32.93;;;8.70;99.90;;;;;;5035791;28;20281;-72
2021/03/04 04:51:56;;;;;;;48.80;31.20;;;8.70;99.90;;;;;;5036573;28;20182;-72
2021/03/04 04:54:21;;;;;;;55.03;32.90;;;8.70;99.90;;;;;;5035941;28;20201;-72
2021/03/04 04:56:47;;;;;;;47.53;32.80;;;8.70;99.90;;;;;;5035671;28;20177;-72
2021/03/04 04:59:12;;;;;;;45.70;32.00;;;8.70;99.90;;;;;;5036110;28;20563;-72
2021/03/04 05:01:38;;;;;;;46.73;32.27;;;8.80;99.90;;;;;;5036067;28;20190;-72
2021/03/04 05:04:04;;;;;;;50.13;34.60;;;8.80;99.90;;;;;;5035994;28;20198;-72
2021/03/04 05:06:29;;;;;;;54.23;36.47;;;8.90;99.90;;;;;;5035431;28;20536;-72
2021/03/04 05:08:55;;;;;;;51.23;33.50;;;8.80;99.90;;;;;;5035539;28;20197;-72
2021/03/04 05:11:20;;;;;;;46.80;32.47;;;8.80;99.90;;;;;;5035929;28;20198;-72
2021/03/04 05:13:46;;;;;;;47.40;34.53;;;8.70;99.90;;;;;;5034804;28;20311;-72
2021/03/04 05:16:12;;;;;;;52.10;33.50;;;8.60;99.90;;;;;;5035211;28;20177;-72
2021/03/04 05:18:38;;;;;;;47.10;33.50;;;8.70;99.90;;;;;;5035500;28;20177;-72
2021/03/04 05:21:05;;;;;;;51.20;34.60;;;8.70;99.90;;;;;;5035575;28;20498;-72
2021/03/04 05:23:30;;;;;;;46.83;33.10;;;8.80;99.90;;;;;;5024075;28;20255;-72
2021/03/04 05:25:56;;;;;;;49.10;35.13;;;8.80;99.90;;;;;;5029000;28;20533;-72
2021/03/04 05:28:21;;;;;;;50.13;34.30;;;8.80;99.90;;;;;;5029935;28;20187;-72
2021/03/04 05:30:47;;;;;;;46.97;34.40;;;8.80;99.90;;;;;;5030034;28;20197;-72
2021/03/04 05:33:12;;;;;;;54.80;35.37;;;8.90;99.90;;;;;;5024666;28;20674;-72
2021/03/04 05:35:38;;;;;;;53.53;35.90;;;8.90;99.90;;;;;;5023801;28;20731;-72
2021/03/04 05:38:03;;;;;;;50.17;35.87;;;8.90;99.90;;;;;;5028928;28;20180;-72
2021/03/04 05:40:29;;;;;;;52.60;35.30;;;8.90;99.90;;;;;;5025725;28;20206;-72
2021/03/04 05:42:56;;;;;;;49.67;34.83;;;8.90;99.90;;;;;;5028709;28;20253;-72
2021/03/04 05:45:23;;;;;;;53.97;36.87;;;8.90;99.90;;;;;;5017416;28;20522;-72
2021/03/04 05:47:49;;;;;;;54.70;36.77;;;8.90;99.90;;;;;;5015109;28;20460;-72
2021/03/04 05:50:21;;;;;;;53.03;35.20;;;8.90;99.90;;;;;;5027270;28;20527;-72
2021/03/04 05:53:09;;;;;;;55.87;37.30;;;8.90;99.90;;;;;;5028299;28;20956;-72
2021/03/04 05:55:36;;;;;;;51.67;37.67;;;8.80;99.90;;;;;;5029784;28;20464;-72
2021/03/04 05:58:02;;;;;;;58.23;34.80;;;8.80;99.90;;;;;;5030743;28;20404;-72
2021/03/04 06:00:27;;;;;;;45.77;34.40;;;8.80;99.90;;;;;;5022107;28;20806;-72
2021/03/04 06:02:53;;;;;;;50.07;35.30;;;8.80;99.90;;;;;;5027737;28;20294;-72
2021/03/04 06:05:19;;;;;;;54.57;35.57;;;8.90;99.90;;;;;;5032551;28;20195;-72
2021/03/04 06:07:45;;;;;;;52.47;36.77;;;8.90;99.90;;;;;;5034416;28;20413;-72
2021/03/04 06:10:13;;;;;;;55.97;37.67;;;8.80;99.90;;;;;;5030885;28;20684;-72
2021/03/04 06:12:40;;;;;;;53.03;36.13;;;8.80;99.90;;;;;;5034640;28;20421;-72
2021/03/04 06:15:10;;;;;;;57.17;36.50;;;8.80;99.90;;;;;;5032467;28;20532;-72
2021/03/04 06:17:36;;;;;;;56.40;37.10;;;8.70;99.90;;;;;;5031546;28;20441;-72
2021/03/04 06:20:04;;;;;;;53.60;35.77;;;8.60;99.90;;;;;;5035963;28;20435;-72
2021/03/04 06:22:32;;;;;;;55.23;36.30;;;8.70;99.90;;;;;;5035206;28;20209;-72
2021/03/04 06:25:00;;;;;;;51.17;34.10;;;8.70;99.90;;;;;;5035291;28;20433;-71
2021/03/04 06:27:30;;;;;;;53.53;36.40;;;8.80;99.90;;;;;;5035510;28;20474;-72
2021/03/04 06:30:00;;;;;;;48.33;33.97;;;8.90;99.90;;;;;;5032580;28;20949;-72
2021/03/04 06:32:27;;;;;;;51.80;36.33;;;9.00;99.90;;;;;;5049842;28;20440;-71
2021/03/04 06:35:01;;;;;;;56.50;37.90;;;9.00;99.90;;;;;;5050180;28;20427;-72
2021/03/04 06:37:29;;;;;;;59.97;38.90;;;9.20;99.90;;;;;;5046971;28;20447;-72
2021/03/04 06:39:55;;;;;;;61.20;40.20;;;9.20;99.90;;;;;;5047240;28;20474;-72
2021/03/04 06:42:22;;;;;;;61.63;38.73;;;9.10;99.90;;;;;;5035857;28;20457;-72
2021/03/04 06:44:55;;;;;;;54.07;38.57;;;9.20;99.90;;;;;;5037546;28;20449;-72
2021/03/04 06:47:28;;;;;;;60.80;40.50;;;9.30;99.90;;;;;;5043225;28;20425;-72
2021/03/04 06:49:55;;;;;;;54.73;37.90;;;9.30;99.90;;;;;;5039264;28;20447;-70
2021/03/04 06:52:30;;;;;;;60.10;38.00;;;9.40;99.90;;;;;;5020876;28;20451;-70
2021/03/04 06:55:09;;;;;;;67.23;46.43;;;9.40;99.90;;;;;;5040483;28;20476;-70
2021/03/04 06:57:35;;;;;;;66.73;46.00;;;9.50;99.90;;;;;;5045299;28;20501;-71
2021/03/04 07:00:00;;;;;;;78.37;46.03;;;9.40;99.90;;;;;;5040599;28;20455;-72
2021/03/04 07:02:29;;;;;;;82.67;47.97;;;9.40;99.90;;;;;;5045015;28;20263;-70
2021/03/04 07:04:56;;;;;;;72.23;46.60;;;9.30;99.90;;;;;;5050061;28;20189;-72
2021/03/04 07:07:25;;;;;;;68.97;44.50;;;9.20;99.90;;;;;;5051313;28;20449;-70
2021/03/04 07:09:57;;;;;;;61.20;39.53;;;9.00;99.90;;;;;;5051140;28;20490;-72
2021/03/04 07:12:24;;;;;;;55.33;39.47;;;8.90;99.90;;;;;;5039356;28;20466;-73
2021/03/04 07:14:51;;;;;;;57.00;41.23;;;8.80;99.90;;;;;;5034690;28;20422;-70
2021/03/04 07:17:18;;;;;;;61.70;44.10;;;8.70;99.90;;;;;;5034316;28;20500;-72
2021/03/04 07:19:49;;;;;;;61.60;42.80;;;8.80;99.90;;;;;;5033456;28;20929;-71
2021/03/04 07:22:17;;;;;;;53.00;40.17;;;8.80;99.90;;;;;;5033739;28;20482;-71
2021/03/04 07:24:44;;;;;;;58.63;39.63;;;8.70;99.90;;;;;;5033980;28;20871;-72
2021/03/04 07:27:13;;;;;;;51.57;38.57;;;8.70;99.90;;;;;;5034086;28;20411;-72
2021/03/04 07:29:39;;;;;;;44.53;38.27;;;8.60;99.90;;;;;;5015583;28;20465;-71
2021/03/04 07:32:07;;;;;;;49.30;37.43;;;8.70;99.90;;;;;;5033885;28;20478;-72
2021/03/04 07:34:34;;;;;;;44.60;36.70;;;8.60;99.90;;;;;;5034245;28;20811;-72
2021/03/04 07:37:01;;;;;;;48.03;35.90;;;8.50;99.90;;;;;;5033587;28;20418;-72
2021/03/04 07:39:35;;;;;;;42.67;36.37;;;8.40;99.90;;;;;;5033468;28;20419;-72
2021/03/04 07:42:01;;;;;;;43.27;35.17;;;8.50;99.90;;;;;;5033806;28;20452;-72
2021/03/04 07:44:31;;;;;;;48.17;35.27;;;8.50;99.90;;;;;;5033605;28;20425;-73
2021/03/04 07:47:02;;;;;;;44.23;36.13;;;8.60;99.90;;;;;;5015335;28;20781;-70
2021/03/04 07:49:36;;;;;;;46.60;37.47;;;8.70;99.90;;;;;;5032910;28;20904;-70
2021/03/04 07:52:16;;;;;;;48.80;38.03;;;8.70;99.90;;;;;;5033382;28;20442;-70
2021/03/04 07:54:43;;;;;;;48.13;38.00;;;8.80;99.90;;;;;;5033552;28;20923;-71
2021/03/04 07:57:11;;;;;;;49.90;40.10;;;8.80;99.90;;;;;;5032623;28;20871;-71
2021/03/04 07:59:48;;;;;;;48.77;38.50;;;8.80;99.90;;;;;;5033056;28;20270;-71
2021/03/04 08:02:25;;;;;;;48.23;36.90;;;8.90;99.90;;;;;;5032945;28;20511;-71
2021/03/04 08:04:51;;;;;;;49.33;37.60;;;8.80;99.90;;;;;;5033053;28;20574;-71
2021/03/04 08:07:24;;;;;;;49.27;38.23;;;8.70;99.90;;;;;;5033343;28;20460;-71
2021/03/04 08:09:50;;;;;;;49.20;38.73;;;8.70;99.90;;;;;;5032864;28;20448;-71
2021/03/04 08:12:16;;;;;;;50.53;40.93;;;8.70;99.90;;;;;;5034517;28;20444;-71
2021/03/04 08:14:54;;;;;;;55.00;40.90;;;8.70;99.90;;;;;;5036566;28;20412;-70
2021/03/04 08:17:19;;;;;;;49.97;39.60;;;8.80;99.90;;;;;;5037017;28;20578;-71
2021/03/04 08:19:48;;;;;;;50.93;40.03;;;8.80;99.90;;;;;;5036427;28;20430;-72
2021/03/04 08:22:21;;;;;;;52.37;39.50;;;8.90;99.90;;;;;;5018723;28;20210;-71
2021/03/04 08:24:47;;;;;;;47.87;38.47;;;8.90;99.90;;;;;;5036256;28;20503;-72
2021/03/04 08:27:13;;;;;;;48.47;37.43;;;9.00;99.90;;;;;;5036307;28;20406;-72
2021/03/04 08:29:49;;;;;;;45.90;37.23;;;9.00;99.90;;;;;;5036222;28;20433;-72
2021/03/04 08:32:15;;;;;;;47.83;37.47;;;9.10;99.90;;;;;;5036376;28;20527;-71
2021/03/04 08:34:41;;;;;;;45.23;36.67;;;9.10;99.90;;;;;;5036793;28;20510;-72
2021/03/04 08:37:21;;;;;;;49.80;36.77;;;9.20;99.90;;;;;;5036476;28;20398;-72
2021/03/04 08:39:47;;;;;;;45.33;34.43;;;9.20;99.90;;;;;;5035815;28;20445;-71
2021/03/04 08:42:12;;;;;;;43.03;33.67;;;9.20;99.90;;;;;;5036216;28;20445;-72
2021/03/04 08:44:49;;;;;;;41.37;33.90;;;9.30;99.90;;;;;;5036868;28;20170;-72
2021/03/04 08:47:16;;;;;;;42.73;33.63;;;9.30;99.90;;;;;;5037592;28;20180;-72
2021/03/04 08:49:52;;;;;;;40.57;32.60;;;9.40;99.90;;;;;;5036988;28;20447;-72
2021/03/04 08:52:22;;;;;;;39.50;30.23;;;9.40;99.90;;;;;;5037746;28;20761;-71
2021/03/04 08:54:49;;;;;;;37.30;28.50;;;9.30;99.90;;;;;;5021288;28;20433;-71
2021/03/04 08:57:21;;;;;;;36.47;27.93;;;9.30;99.90;;;;;;5036524;28;20409;-71
2021/03/04 08:59:47;;;;;;;36.87;27.23;;;9.30;99.90;;;;;;5035734;28;20424;-71
2021/03/04 09:02:14;;;;;;;34.83;26.33;;;9.20;99.90;;;;;;5018431;28;20463;-70
2021/03/04 09:04:39;;;;;;;41.20;28.40;;;9.00;99.90;;;;;;5017994;28;20197;-71
2021/03/04 09:07:05;;;;;;;36.07;28.10;;;9.00;99.90;;;;;;5035663;28;20409;-71
2021/03/04 09:09:31;;;;;;;38.57;27.50;;;9.00;99.90;;;;;;5035928;28;20221;-70
2021/03/04 09:11:58;;;;;;;37.70;28.47;;;8.70;99.90;;;;;;5035433;28;20260;-70
2021/03/04 09:14:31;;;;;;;41.77;29.57;;;8.50;99.90;;;;;;5035759;28;20410;-70
2021/03/04 09:16:57;;;;;;;46.17;31.30;;;8.40;99.90;;;;;;5035677;28;20415;-72
2021/03/04 09:19:43;;;;;;;41.63;30.80;;;8.30;99.90;;;;;;5035544;28;20431;-70
2021/03/04 09:22:10;;;;;;;51.40;32.63;;;8.10;99.90;;;;;;5037221;28;20804;-72
2021/03/04 09:24:38;;;;;;;44.50;29.80;;;7.90;99.90;;;;;;5036779;28;20417;-71
2021/03/04 09:27:05;;;;;;;44.80;30.30;;;7.80;99.90;;;;;;5037513;28;20406;-71
2021/03/04 09:29:32;;;;;;;47.17;33.43;;;7.80;99.90;;;;;;5036264;28;20407;-71
2021/03/04 09:31:58;;;;;;;51.80;33.67;;;7.80;99.90;;;;;;5035206;28;20423;-72
2021/03/04 09:34:30;;;;;;;48.30;33.37;;;7.70;99.90;;;;;;5035618;28;20406;-72
2021/03/04 09:37:26;;;;;;;41.23;29.70;;;7.80;99.90;;;;;;5035622;28;20970;-72
2021/03/04 09:39:53;;;;;;;44.03;30.93;;;7.90;99.90;;;;;;4993955;28;20448;-72
2021/03/04 09:42:32;;;;;;;43.50;30.60;;;7.80;99.90;;;;;;4993902;28;20451;-72
2021/03/04 09:45:03;;;;;;;44.27;29.80;;;7.80;99.90;;;;;;4994140;28;20413;-73
2021/03/04 09:47:32;;;;;;;45.03;32.30;;;7.80;99.90;;;;;;4993928;28;20420;-72
2021/03/04 09:49:59;;;;;;;46.73;32.40;;;7.80;99.90;;;;;;4993246;28;20460;-72
2021/03/04 09:52:27;;;;;;;45.33;29.13;;;7.90;99.90;;;;;;4977363;28;20896;-70
2021/03/04 09:55:11;;;;;;;41.00;29.80;;;7.90;99.90;;;;;;4993799;28;20424;-71
2021/03/04 09:57:42;;;;;;;42.77;30.83;;;8.00;99.90;;;;;;4994111;28;20520;-71
2021/03/04 10:00:28;;;;;;;39.97;29.20;;;8.00;99.90;;;;;;4976877;28;20942;-71
2021/03/04 10:02:56;;;;;;;36.20;28.47;;;8.00;99.90;;;;;;4916244;29;20638;-73
2021/03/04 10:05:25;;;;;;;36.30;28.10;;;8.00;99.90;;;;;;4900683;29;20433;-72
2021/03/04 10:07:56;;;;;;;37.30;27.13;;;8.00;99.90;;;;;;4916180;29;20508;-73
2021/03/04 10:10:22;;;;;;;38.13;27.00;;;8.00;99.90;;;;;;4916444;29;20533;-72
2021/03/04 10:12:56;;;;;;;33.10;26.00;;;8.10;99.90;;;;;;4911477;29;20479;-72
2021/03/04 10:15:38;;;;;;;36.47;25.73;;;8.30;99.90;;;;;;4902811;29;20180;-72
2021/03/04 10:18:14;;;;;;;31.83;22.40;;;8.50;99.90;;;;;;4934846;29;20436;-72
2021/03/04 10:20:41;;;;;;;30.23;23.17;;;8.70;99.90;;;;;;4935002;29;20432;-72
2021/03/04 10:23:08;;;;;;;29.53;21.40;;;8.80;99.90;;;;;;4934974;29;20458;-71
2021/03/04 10:25:33;;;;;;;29.23;22.27;;;8.80;99.90;;;;;;4936151;29;20507;-72
2021/03/04 10:27:59;;;;;;;27.60;22.17;;;8.70;99.90;;;;;;4935932;29;20545;-72
2021/03/04 10:30:27;;;;;;;26.17;20.60;;;8.70;99.90;;;;;;4936146;29;20217;-72
2021/03/04 10:32:53;;;;;;;29.10;23.97;;;8.70;99.90;;;;;;4937469;29;20881;-72
2021/03/04 10:35:19;;;;;;;28.40;22.83;;;8.90;99.90;;;;;;4935045;29;20425;-72
2021/03/04 10:37:45;;;;;;;24.93;20.10;;;9.10;99.90;;;;;;4935104;29;20446;-71
2021/03/04 10:40:13;;;;;;;26.23;20.73;;;9.40;99.90;;;;;;4981916;28;20946;-73
2021/03/04 10:42:39;;;;;;;20.90;18.50;;;9.60;99.90;;;;;;5014316;28;20207;-73
2021/03/04 10:45:07;;;;;;;24.70;17.57;;;9.60;99.90;;;;;;5014758;28;20544;-73
2021/03/04 10:47:33;;;;;;;20.57;16.93;;;9.70;99.90;;;;;;5014285;28;20443;-72
2021/03/04 10:49:58;;;;;;;20.23;15.90;;;9.50;99.90;;;;;;5019705;28;20480;-72
2021/03/04 10:52:25;;;;;;;19.17;16.00;;;9.40;99.90;;;;;;5018056;28;20185;-72
2021/03/04 10:54:52;;;;;;;17.73;14.10;;;9.20;99.90;;;;;;5014361;28;20172;-72
2021/03/04 10:57:18;;;;;;;16.80;14.67;;;9.20;99.90;;;;;;5014492;28;20428;-73
2021/03/04 10:59:43;;;;;;;19.07;16.40;;;9.30;99.90;;;;;;5014080;28;20453;-72
2021/03/04 11:02:09;;;;;;;16.87;14.67;;;9.40;99.90;;;;;;5013995;28;20543;-72
2021/03/04 11:04:35;;;;;;;20.27;16.97;;;9.40;99.90;;;;;;5014285;28;20171;-71
2021/03/04 11:07:00;;;;;;;21.40;16.20;;;9.50;99.90;;;;;;5013918;28;20183;-72
2021/03/04 11:09:27;;;;;;;20.27;16.40;;;9.70;99.90;;;;;;5013639;28;20198;-72
2021/03/04 11:12:05;;;;;;;18.90;15.10;;;9.70;99.90;;;;;;5013395;28;20228;-73
2021/03/04 11:14:31;;;;;;;20.97;16.40;;;9.70;99.90;;;;;;5034158;28;20726;-72
2021/03/04 11:16:56;;;;;;;21.40;16.63;;;9.60;99.90;;;;;;5032678;28;20425;-70
2021/03/04 11:19:25;;;;;;;18.10;15.90;;;9.60;99.90;;;;;;5015834;28;20170;-71
2021/03/04 11:21:51;;;;;;;21.30;16.90;;;9.60;99.90;;;;;;5033347;28;20210;-72
2021/03/04 11:24:16;;;;;;;19.37;17.07;;;9.50;99.90;;;;;;5032880;28;20452;-71
2021/03/04 11:26:42;;;;;;;17.73;15.03;;;9.60;99.90;;;;;;5015599;28;20414;-71
2021/03/04 11:29:09;;;;;;;19.63;15.80;;;9.50;99.90;;;;;;5032481;28;20170;-71
2021/03/04 11:31:36;;;;;;;18.30;15.23;;;9.50;99.90;;;;;;5033840;28;20203;-72
2021/03/04 11:34:02;;;;;;;20.40;16.37;;;9.60;99.90;;;;;;5033685;28;20966;-70
2021/03/04 11:36:29;;;;;;;26.30;17.83;;;9.50;99.90;;;;;;5034104;28;20406;-71
2021/03/04 11:38:55;;;;;;;19.43;16.10;;;9.50;99.90;;;;;;5033419;28;20473;-72
2021/03/04 11:41:20;;;;;;;23.57;17.93;;;9.60;99.90;;;;;;5033148;28;20810;-72
2021/03/04 11:43:46;;;;;;;24.70;18.90;;;9.60;99.90;;;;;;5033388;28;20167;-72
2021/03/04 11:46:12;;;;;;;24.93;19.70;;;9.70;99.90;;;;;;5033644;28;20224;-72
2021/03/04 11:48:38;;;;;;;30.20;21.00;;;9.70;99.90;;;;;;5037184;28;20270;-71
2021/03/04 11:51:04;;;;;;;27.20;21.40;;;9.70;99.90;;;;;;5037541;28;20425;-71
2021/03/04 11:53:29;;;;;;;29.37;22.80;;;9.70;99.90;;;;;;5037167;28;20413;-71
2021/03/04 11:55:55;;;;;;;30.50;23.67;;;9.70;99.90;;;;;;5037098;28;20191;-71
2021/03/04 11:58:20;;;;;;;30.77;22.73;;;9.70;99.90;;;;;;5037075;28;20174;-72
2021/03/04 12:00:46;;;;;;;30.33;22.90;;;9.70;99.90;;;;;;5019424;28;20229;-71
2021/03/04 12:03:11;;;;;;;30.00;23.20;;;9.60;99.90;;;;;;5037552;28;20207;-70
2021/03/04 12:05:37;;;;;;;30.37;22.57;;;9.50;99.90;;;;;;5036807;28;20230;-71
2021/03/04 12:08:03;;;;;;;28.23;21.63;;;9.20;99.90;;;;;;5036846;28;20628;-71
2021/03/04 12:10:28;;;;;;;30.43;23.40;;;8.90;99.90;;;;;;5036931;28;20184;-70
2021/03/04 12:12:54;;;;;;;24.80;21.33;;;8.70;99.90;;;;;;5036256;28;20457;-70
2021/03/04 12:15:20;;;;;;;29.90;21.50;;;8.70;99.90;;;;;;5036924;28;20310;-71
2021/03/04 12:17:46;;;;;;;26.73;21.07;;;8.70;99.90;;;;;;5036286;28;20583;-71
2021/03/04 12:20:12;;;;;;;23.23;18.57;;;8.40;99.90;;;;;;5011045;28;20468;-71
2021/03/04 12:22:38;;;;;;;22.33;18.53;;;8.20;99.90;;;;;;5021051;28;20752;-71
2021/03/04 12:25:08;;;;;;;27.37;20.40;;;8.10;99.90;;;;;;5029307;28;20425;-71
2021/03/04 12:27:34;;;;;;;29.63;19.87;;;7.90;99.90;;;;;;5018240;28;20179;-72
2021/03/04 12:29:59;;;;;;;28.10;20.07;;;7.80;99.90;;;;;;5028412;28;20860;-72
2021/03/04 12:32:25;;;;;;;28.93;19.87;;;7.70;99.90;;;;;;5006759;28;20227;-71
2021/03/04 12:34:51;;;;;;;26.30;18.23;;;7.60;99.90;;;;;;5031648;28;20199;-71
2021/03/04 12:37:17;;;;;;;27.67;19.93;;;7.70;99.90;;;;;;5033685;28;20526;-72
2021/03/04 12:39:42;;;;;;;21.70;16.87;;;7.80;99.90;;;;;;5033862;28;20458;-71